Time;durP1;ratioP1;P1;durP2;ratioP2;P2;SDS_P1;SDS_P2;PMS_P1;PMS_P2;Temp;Humidity;BMP_temperature;BMP_pressure;BME280_temperature;BME280_humidity;BME280_pressure;Samples;Min_cycle;Max_cycle;Signal;HPM_P1;HPM_P2
2022/09/20 00:01:24;;;;;;;11.35;1.85;;;10.30;99.90;;;;;;5107658;28;20036;-66
2022/09/20 00:03:52;;;;;;;7.88;2.17;;;10.30;99.90;;;;;;5102601;28;20496;-65
2022/09/20 00:06:19;;;;;;;;;;;10.20;99.90;;;;;;5082774;28;20040;-67
2022/09/20 00:08:45;;;;;;;7.85;1.80;;;10.20;99.90;;;;;;5093496;28;19919;-68
2022/09/20 00:11:19;;;;;;;11.02;2.28;;;10.10;99.90;;;;;;5103811;28;20047;-66
2022/09/20 00:13:47;;;;;;;12.25;2.20;;;10.10;99.90;;;;;;5101841;28;20097;-64
2022/09/20 00:16:19;;;;;;;8.52;1.92;;;10.10;99.90;;;;;;5107257;28;20477;-66
2022/09/20 00:18:52;;;;;;;9.93;2.45;;;10.00;99.90;;;;;;5113839;28;20047;-69
2022/09/20 00:21:21;;;;;;;11.40;2.13;;;10.00;99.90;;;;;;5099777;28;20562;-66
2022/09/20 00:23:47;;;;;;;9.00;2.20;;;10.00;99.90;;;;;;5109344;28;20033;-66
2022/09/20 00:26:13;;;;;;;6.22;1.70;;;9.90;99.90;;;;;;5085344;28;20036;-66
2022/09/20 00:28:39;;;;;;;11.63;2.03;;;9.90;99.90;;;;;;5108816;28;20032;-64
2022/09/20 00:31:06;;;;;;;13.07;1.65;;;9.80;99.90;;;;;;5092408;28;20040;-65
2022/09/20 00:36:17;;;;;;;7.28;2.10;;;9.80;99.90;;;;;;5102885;28;20043;-66
2022/09/20 00:38:43;;;;;;;8.23;1.88;;;9.90;99.90;;;;;;5112763;28;20044;-66
2022/09/20 00:41:08;;;;;;;10.63;1.80;;;9.80;99.90;;;;;;5109553;28;20123;-65
2022/09/20 00:43:36;;;;;;;11.27;1.98;;;9.80;99.90;;;;;;5113220;28;20117;-65
2022/09/20 00:46:03;;;;;;;12.93;1.75;;;9.70;99.90;;;;;;5108293;28;20074;-66
2022/09/20 00:48:31;;;;;;;5.53;1.77;;;9.70;99.90;;;;;;5094482;28;20075;-66
2022/09/20 00:51:08;;;;;;;7.47;1.95;;;9.60;99.90;;;;;;5108535;28;20418;-65
2022/09/20 00:53:41;;;;;;;10.98;1.90;;;9.60;99.90;;;;;;5103549;28;20058;-66
2022/09/20 00:56:28;;;;;;;11.27;2.05;;;9.60;99.90;;;;;;5109359;28;20107;-66
2022/09/20 00:59:15;;;;;;;11.20;2.00;;;9.60;99.90;;;;;;5113141;28;20047;-66
2022/09/20 01:01:43;;;;;;;12.45;2.00;;;9.50;99.90;;;;;;5090256;28;20046;-65
2022/09/20 01:04:10;;;;;;;10.90;2.08;;;9.50;99.90;;;;;;5098295;28;20054;-64
2022/09/20 01:06:45;;;;;;;9.18;1.77;;;9.40;99.90;;;;;;5110108;28;20043;-64
2022/09/20 01:09:11;;;;;;;12.27;2.72;;;9.40;99.90;;;;;;5112211;28;20069;-67
2022/09/20 01:11:38;;;;;;;12.63;1.85;;;9.40;99.90;;;;;;5100871;28;20036;-66
2022/09/20 01:14:03;;;;;;;7.95;2.72;;;9.30;99.90;;;;;;5087014;28;20043;-65
2022/09/20 01:16:31;;;;;;;10.57;2.00;;;9.40;99.90;;;;;;5113608;28;20036;-66
2022/09/20 01:19:02;;;;;;;7.80;2.00;;;9.30;99.90;;;;;;5113953;28;20040;-65
2022/09/20 01:21:28;;;;;;;12.73;2.30;;;9.20;99.90;;;;;;5103801;28;20081;-65
2022/09/20 01:24:20;;;;;;;7.97;1.83;;;9.20;99.90;;;;;;5105571;28;20036;-66
2022/09/20 01:27:08;;;;;;;10.35;1.67;;;9.10;99.90;;;;;;5098825;28;20789;-67
2022/09/20 01:30:07;;;;;;;5.38;1.55;;;9.10;99.90;;;;;;5109629;28;20063;-65
2022/09/20 01:33:04;;;;;;;9.85;2.15;;;9.00;99.90;;;;;;5111560;28;20103;-65
2022/09/20 01:35:53;;;;;;;9.25;2.20;;;9.00;99.90;;;;;;5149132;22;20312;-83
2022/09/20 01:38:43;;;;;;;11.80;2.70;;;9.00;99.90;;;;;;5094971;28;20499;-83
2022/09/20 01:42:24;;;;;;;9.82;1.65;;;9.60;99.90;;;;;;5099755;28;20120;-83
2022/09/20 01:45:27;;;;;;;8.15;1.67;;;8.80;99.90;;;;;;4989457;28;20185;-84
2022/09/20 01:48:38;;;;;;;5.60;1.50;;;8.80;99.90;;;;;;5061610;28;20052;-82
2022/09/20 01:51:57;;;;;;;7.25;1.85;;;8.80;99.90;;;;;;5008549;28;20053;-83
2022/09/20 01:55:10;;;;;;;7.40;1.98;;;8.70;99.90;;;;;;5086555;28;20055;-83
2022/09/20 01:58:37;;;;;;;9.27;2.10;;;8.70;99.90;;;;;;5059271;28;20055;-82
2022/09/20 02:01:37;;;;;;;;;;;;;;;;;;;;;
2022/09/20 02:04:52;;;;;;;;;;;;;;;;;;;;;
2022/09/20 02:08:19;;;;;;;9.57;1.92;;;8.70;99.90;;;;;;5084918;28;20056;-82
2022/09/20 02:11:37;;;;;;;14.40;2.83;;;8.70;99.90;;;;;;5090125;28;20020;-83
2022/09/20 02:14:44;;;;;;;;;;;;;;;;;;;;;
2022/09/20 02:17:29;;;;;;;9.70;2.10;;;8.70;99.90;;;;;;5083343;23;20109;-66
2022/09/20 02:20:23;;;;;;;13.13;2.45;;;8.70;99.90;;;;;;5082202;28;20044;-65
2022/09/20 02:23:10;;;;;;;11.88;2.00;;;8.70;99.90;;;;;;5068714;28;20139;-65
2022/09/20 02:25:51;;;;;;;18.10;2.85;;;8.70;99.90;;;;;;5090915;28;20393;-66
2022/09/20 02:28:48;;;;;;;10.00;2.25;;;8.60;99.90;;;;;;5088137;28;20044;-66
2022/09/20 02:32:00;;;;;;;10.82;2.15;;;8.60;99.90;;;;;;5081291;28;20044;-67
2022/09/20 02:34:52;;;;;;;7.40;1.85;;;8.60;99.90;;;;;;5074704;28;20050;-66
2022/09/20 02:37:55;;;;;;;11.05;2.50;;;8.60;99.90;;;;;;5082528;28;20046;-66
2022/09/20 02:41:00;;;;;;;16.00;2.22;;;8.60;99.90;;;;;;5065811;28;20514;-66
2022/09/20 02:44:07;;;;;;;12.98;2.38;;;8.60;99.90;;;;;;5060621;28;20359;-68
2022/09/20 02:46:45;;;;;;;9.85;2.45;;;8.60;99.90;;;;;;5000891;28;20396;-68
2022/09/20 02:50:00;;;;;;;13.20;2.53;;;8.60;99.90;;;;;;4994035;28;20128;-66
2022/09/20 02:53:04;;;;;;;11.40;2.40;;;8.60;99.90;;;;;;5059040;28;20091;-67
2022/09/20 02:55:57;;;;;;;11.00;2.13;;;8.60;99.90;;;;;;5068622;28;20503;-64
2022/09/20 02:58:39;;;;;;;17.35;2.03;;;8.60;99.90;;;;;;5073832;28;20036;-65
2022/09/20 03:01:12;;;;;;;8.05;2.10;;;8.50;99.90;;;;;;5067425;28;20056;-66
2022/09/20 03:03:56;;;;;;;8.95;2.28;;;8.50;99.90;;;;;;5073054;28;20037;-67
2022/09/20 03:06:59;;;;;;;16.05;2.55;;;8.50;99.90;;;;;;5066839;28;20528;-64
2022/09/20 03:09:39;;;;;;;10.98;2.22;;;8.50;99.90;;;;;;5072258;28;20044;-66
2022/09/20 03:12:59;;;;;;;8.80;2.10;;;8.50;99.90;;;;;;5073883;28;20071;-65
2022/09/20 03:15:49;;;;;;;6.10;2.10;;;8.50;99.90;;;;;;5011085;28;20129;-66
2022/09/20 03:18:41;;;;;;;8.32;2.33;;;8.40;99.90;;;;;;5050377;28;20500;-65
2022/09/20 03:21:49;;;;;;;11.27;2.33;;;8.50;99.90;;;;;;5053499;28;20044;-66
2022/09/20 03:24:42;;;;;;;8.50;2.00;;;8.40;99.90;;;;;;5029476;28;20044;-67
2022/09/20 03:27:31;;;;;;;8.70;2.28;;;8.40;99.90;;;;;;5033676;28;20049;-64
2022/09/20 03:30:44;;;;;;;11.05;2.47;;;8.40;99.90;;;;;;5046787;28;20037;-64
2022/09/20 03:33:36;;;;;;;7.88;2.45;;;8.40;99.90;;;;;;4966573;28;20050;-65
2022/09/20 03:36:07;;;;;;;10.48;2.65;;;8.40;99.90;;;;;;5050617;28;20041;-66
2022/09/20 03:39:05;;;;;;;14.00;2.53;;;8.40;99.90;;;;;;5019632;28;20102;-66
2022/09/20 03:41:51;;;;;;;16.13;2.33;;;8.40;99.90;;;;;;5052699;28;20041;-66
2022/09/20 03:44:42;;;;;;;10.20;1.92;;;8.40;99.90;;;;;;5033890;28;20171;-66
2022/09/20 03:47:31;;;;;;;9.15;2.20;;;8.40;99.90;;;;;;5032579;28;20048;-66
2022/09/20 03:50:00;;;;;;;8.07;1.92;;;8.50;99.90;;;;;;5052789;28;20052;-66
2022/09/20 03:52:49;;;;;;;14.52;2.17;;;8.50;99.90;;;;;;5029691;28;20057;-67
2022/09/20 03:55:35;;;;;;;8.52;1.83;;;8.50;99.90;;;;;;5052098;28;20045;-66
2022/09/20 03:58:23;;;;;;;8.55;2.22;;;8.50;99.90;;;;;;5011229;28;20048;-65
2022/09/20 04:01:08;;;;;;;12.05;2.20;;;8.60;99.90;;;;;;5029386;28;20056;-65
2022/09/20 04:04:07;;;;;;;9.75;2.20;;;8.60;99.90;;;;;;5042808;28;20047;-65
2022/09/20 04:06:53;;;;;;;8.50;1.90;;;8.60;99.90;;;;;;5004738;28;20048;-65
2022/09/20 04:10:06;;;;;;;9.18;2.08;;;8.60;99.90;;;;;;5048933;28;20045;-66
2022/09/20 04:12:38;;;;;;;8.60;2.10;;;8.60;99.90;;;;;;5036390;28;20053;-66
2022/09/20 04:15:21;;;;;;;7.25;1.80;;;8.70;99.90;;;;;;5048890;28;20044;-66
2022/09/20 04:17:52;;;;;;;13.90;2.10;;;8.60;99.90;;;;;;5030445;28;20175;-67
2022/09/20 04:20:27;;;;;;;7.95;2.10;;;8.70;99.90;;;;;;5003868;28;20045;-68
2022/09/20 04:22:58;;;;;;;7.22;2.15;;;8.70;99.90;;;;;;5015544;28;20161;-68
2022/09/20 04:25:32;;;;;;;6.22;2.08;;;8.70;99.90;;;;;;5028719;28;20044;-67
2022/09/20 04:28:27;;;;;;;7.45;2.20;;;8.70;99.90;;;;;;5031250;28;20061;-65
2022/09/20 04:30:58;;;;;;;6.22;1.80;;;8.70;99.90;;;;;;5016593;28;20045;-67
2022/09/20 04:33:30;;;;;;;7.13;1.80;;;9.00;99.90;;;;;;5028950;28;20034;-66
2022/09/20 04:36:28;;;;;;;5.82;1.92;;;8.70;99.90;;;;;;5030685;28;20033;-67
2022/09/20 04:39:05;;;;;;;6.20;2.00;;;8.70;99.90;;;;;;5003105;28;20403;-66
2022/09/20 04:41:55;;;;;;;11.93;1.90;;;8.70;99.90;;;;;;5029856;28;20038;-68
2022/09/20 04:44:48;;;;;;;10.05;2.22;;;8.70;99.90;;;;;;5025653;28;20061;-65
2022/09/20 04:47:31;;;;;;;9.77;1.80;;;8.60;99.90;;;;;;5022074;28;20041;-65
2022/09/20 04:50:22;;;;;;;5.50;2.20;;;8.60;99.90;;;;;;5026432;28;20045;-67
2022/09/20 04:53:26;;;;;;;10.60;2.00;;;8.60;99.90;;;;;;5032152;28;20057;-65
2022/09/20 04:56:05;;;;;;;9.52;2.10;;;8.60;99.90;;;;;;5025425;28;20045;-66
2022/09/20 04:58:56;;;;;;;7.57;2.20;;;8.60;99.90;;;;;;5028438;28;20037;-66
2022/09/20 05:01:58;;;;;;;9.55;1.98;;;8.60;99.90;;;;;;5026623;28;20509;-66
2022/09/20 05:04:39;;;;;;;13.65;2.08;;;8.70;99.90;;;;;;5028128;28;20045;-65
2022/09/20 05:07:27;;;;;;;13.45;2.55;;;8.70;99.90;;;;;;5027311;28;20050;-65
2022/09/20 05:10:02;;;;;;;7.35;2.45;;;8.70;99.90;;;;;;5024842;28;20037;-66
2022/09/20 05:16:22;;;;;;;9.13;2.47;;;8.80;99.90;;;;;;5032028;28;20083;-63
2022/09/20 05:19:11;;;;;;;11.57;2.50;;;8.90;99.90;;;;;;5025448;28;20056;-68
2022/09/20 05:22:05;;;;;;;7.18;2.42;;;8.90;99.90;;;;;;5038321;28;20044;-66
2022/09/20 05:25:05;;;;;;;9.88;2.42;;;9.00;99.90;;;;;;5032683;28;20054;-66
2022/09/20 05:27:39;;;;;;;6.00;2.10;;;9.00;99.90;;;;;;5031854;28;20059;-66
2022/09/20 05:30:24;;;;;;;9.80;2.22;;;9.10;99.90;;;;;;5029423;28;20041;-66
2022/09/20 05:33:07;;;;;;;14.48;3.08;;;9.20;99.90;;;;;;5051058;28;20041;-65
2022/09/20 05:35:43;;;;;;;11.32;2.60;;;9.30;99.90;;;;;;5049967;28;21340;-66
2022/09/20 05:38:47;;;;;;;15.20;2.25;;;9.40;99.90;;;;;;5049931;28;20037;-66
2022/09/20 05:41:30;;;;;;;7.45;2.70;;;9.40;99.90;;;;;;5048804;28;20045;-66
2022/09/20 05:44:14;;;;;;;7.50;2.10;;;9.50;99.90;;;;;;5045530;28;20036;-65
2022/09/20 05:46:56;;;;;;;7.30;1.90;;;9.50;99.90;;;;;;5027391;28;20063;-66
2022/09/20 05:49:35;;;;;;;8.27;2.88;;;9.60;99.90;;;;;;5043269;28;20059;-66
2022/09/20 05:52:19;;;;;;;10.82;2.53;;;9.60;99.90;;;;;;5048686;28;20037;-67
2022/09/20 05:55:22;;;;;;;9.93;2.30;;;9.60;99.90;;;;;;5047914;28;20037;-66
2022/09/20 05:58:02;;;;;;;11.07;2.42;;;9.60;99.90;;;;;;5046575;28;20049;-65
2022/09/20 06:00:41;;;;;;;10.43;2.40;;;9.60;99.90;;;;;;5043947;28;20069;-65
2022/09/20 06:03:35;;;;;;;16.98;2.50;;;9.60;99.90;;;;;;5046507;28;20075;-67
2022/09/20 06:06:17;;;;;;;12.05;2.30;;;9.60;99.90;;;;;;5040808;28;20390;-65
2022/09/20 06:09:06;;;;;;;6.00;1.92;;;9.60;99.90;;;;;;5035772;28;20078;-66
2022/09/20 06:11:45;;;;;;;8.27;2.92;;;9.60;99.90;;;;;;5043661;28;20099;-66
2022/09/20 06:14:39;;;;;;;10.02;2.28;;;9.60;99.90;;;;;;5040218;28;20045;-66
2022/09/20 06:17:14;;;;;;;5.45;2.17;;;9.70;99.90;;;;;;5055335;28;20064;-66
2022/09/20 06:19:39;;;;;;;9.95;2.38;;;9.80;99.90;;;;;;5068011;28;20047;-66
2022/09/20 06:22:21;;;;;;;11.00;2.28;;;9.80;99.90;;;;;;5064717;28;20473;-67
2022/09/20 06:24:52;;;;;;;9.30;2.38;;;10.00;99.90;;;;;;5051565;28;20033;-65
2022/09/20 06:27:27;;;;;;;8.95;1.92;;;10.20;99.90;;;;;;5066452;28;20048;-66
2022/09/20 06:29:59;;;;;;;8.40;1.90;;;10.40;99.90;;;;;;5054452;28;20060;-66
2022/09/20 06:32:26;;;;;;;5.22;1.33;;;10.60;99.90;;;;;;5072417;28;20398;-67
2022/09/20 06:34:52;;;;;;;5.30;0.95;;;10.80;99.90;;;;;;5049160;28;20060;-65
2022/09/20 06:43:32;;;;;;;7.57;1.55;;;11.00;99.90;;;;;;5072773;28;20437;-63
2022/09/20 06:45:58;;;;;;;13.95;2.47;;;11.10;99.90;;;;;;5072725;28;20044;-67
2022/09/20 06:48:24;;;;;;;10.07;1.55;;;11.00;99.90;;;;;;5065132;28;20492;-67
2022/09/20 06:54:31;;;;;;;18.33;2.10;;;10.90;99.90;;;;;;5060585;28;20087;-66
2022/09/20 06:56:57;;;;;;;11.27;1.90;;;10.90;99.90;;;;;;5071691;28;20048;-65
2022/09/20 06:59:22;;;;;;;9.23;2.65;;;10.90;99.90;;;;;;5070300;28;20032;-66
2022/09/20 07:01:48;;;;;;;13.07;2.20;;;10.90;99.90;;;;;;5069434;28;20102;-66
2022/09/20 07:04:14;;;;;;;4.95;1.83;;;10.90;99.90;;;;;;5053674;28;20048;-67
2022/09/20 07:06:40;;;;;;;8.27;1.60;;;10.90;99.90;;;;;;5053427;28;20090;-67
2022/09/20 07:09:07;;;;;;;9.52;1.73;;;10.90;99.90;;;;;;5041342;28;20052;-65
2022/09/20 07:11:33;;;;;;;7.68;1.75;;;10.90;99.90;;;;;;5072162;28;20063;-66
2022/09/20 07:13:59;;;;;;;10.40;1.67;;;11.00;99.90;;;;;;5067164;28;20072;-65
2022/09/20 07:16:25;;;;;;;8.23;1.80;;;11.00;99.90;;;;;;5038144;28;20430;-67
2022/09/20 07:18:51;;;;;;;7.78;1.63;;;11.10;99.90;;;;;;5067808;28;20141;-67
2022/09/20 07:21:19;;;;;;;10.93;2.00;;;11.10;99.90;;;;;;5067902;28;20045;-66
2022/09/20 07:23:47;;;;;;;8.25;1.77;;;11.20;99.90;;;;;;5069966;28;20037;-66
2022/09/20 07:26:25;;;;;;;7.80;2.00;;;11.30;99.90;;;;;;5073319;28;20139;-64
2022/09/20 07:29:41;;;;;;;6.28;1.80;;;11.30;99.90;;;;;;5445677;22;20174;-70
2022/09/20 07:32:07;;;;;;;8.70;2.03;;;11.30;99.90;;;;;;5093131;28;20044;-69
2022/09/20 07:34:33;;;;;;;9.75;2.10;;;11.50;99.90;;;;;;5094961;28;20072;-69
2022/09/20 07:36:58;;;;;;;6.97;1.98;;;11.60;99.90;;;;;;5106678;28;20032;-67
2022/09/20 07:39:25;;;;;;;9.13;2.40;;;11.70;99.90;;;;;;5102270;28;20167;-69
2022/09/20 07:41:51;;;;;;;7.70;1.58;;;11.90;99.90;;;;;;5075780;28;20024;-69
2022/09/20 07:44:20;;;;;;;8.95;1.48;;;12.00;99.90;;;;;;5087831;28;20041;-69
2022/09/20 07:46:50;;;;;;;6.25;1.75;;;12.20;99.90;;;;;;5095913;28;20062;-68
2022/09/20 07:49:16;;;;;;;14.10;2.03;;;12.30;99.90;;;;;;5092929;28;20086;-68
2022/09/20 07:51:41;;;;;;;5.97;1.52;;;12.50;99.90;;;;;;5082676;28;20048;-67
2022/09/20 07:54:07;;;;;;;5.85;1.45;;;12.60;99.90;;;;;;5066793;28;20436;-71
2022/09/20 07:56:33;;;;;;;3.42;1.30;;;12.80;99.90;;;;;;5089215;28;20040;-69
2022/09/20 07:58:59;;;;;;;7.97;1.55;;;13.00;99.90;;;;;;5102155;28;20108;-69
2022/09/20 08:01:24;;;;;;;6.80;1.70;;;13.10;99.90;;;;;;5102614;28;20043;-72
2022/09/20 08:03:50;;;;;;;9.30;1.63;;;13.20;99.90;;;;;;5086742;28;20033;-70
2022/09/20 08:06:17;;;;;;;7.22;2.00;;;13.40;99.90;;;;;;5087138;28;20048;-69
2022/09/20 08:08:44;;;;;;;8.70;1.52;;;13.50;99.90;;;;;;5095854;28;20057;-71
2022/09/20 08:11:13;;;;;;;7.78;1.58;;;13.50;99.90;;;;;;5108977;28;20036;-69
2022/09/20 08:13:49;;;;;;;6.45;1.50;;;13.90;99.90;;;;;;5093626;28;20047;-72
2022/09/20 08:16:16;;;;;;;5.38;1.45;;;13.80;99.90;;;;;;5110130;28;20562;-68
2022/09/20 08:19:00;;;;;;;6.95;1.30;;;14.00;99.90;;;;;;5087638;28;20123;-68
2022/09/20 08:21:30;;;;;;;9.80;1.60;;;14.10;99.90;;;;;;5086415;28;20453;-70
2022/09/20 08:23:56;;;;;;;5.45;1.27;;;14.30;99.90;;;;;;5082435;28;20070;-69
2022/09/20 08:26:23;;;;;;;3.55;1.20;;;14.40;99.90;;;;;;5095437;28;20086;-71
2022/09/20 08:28:54;;;;;;;5.40;1.30;;;14.50;99.90;;;;;;5102028;28;20096;-70
2022/09/20 08:31:23;;;;;;;9.52;1.60;;;14.60;99.90;;;;;;5081407;28;20024;-68
2022/09/20 08:33:50;;;;;;;7.05;1.30;;;14.80;99.90;;;;;;5075757;28;20069;-71
2022/09/20 08:36:18;;;;;;;5.28;1.63;;;14.90;99.90;;;;;;5078195;28;20021;-69
2022/09/20 08:38:44;;;;;;;3.42;1.10;;;14.90;99.90;;;;;;5089968;28;20044;-67
2022/09/20 08:41:20;;;;;;;7.60;1.88;;;15.10;99.90;;;;;;5093520;28;20031;-66
2022/09/20 08:43:51;;;;;;;7.88;1.70;;;15.10;99.90;;;;;;5088764;28;20127;-67
2022/09/20 08:46:21;;;;;;;7.82;1.67;;;15.00;99.90;;;;;;5095309;28;20028;-68
2022/09/20 08:48:47;;;;;;;7.03;1.20;;;15.00;99.90;;;;;;5096039;28;20059;-71
2022/09/20 08:51:15;;;;;;;4.05;1.20;;;14.90;99.90;;;;;;5091924;28;20040;-67
2022/09/20 08:53:53;;;;;;;8.18;1.83;;;14.80;99.90;;;;;;5086337;28;20044;-69
2022/09/20 08:56:19;;;;;;;2.63;1.13;;;14.60;99.90;;;;;;5089396;28;20039;-70
2022/09/20 08:58:45;;;;;;;7.35;1.55;;;14.40;99.90;;;;;;5082537;28;20049;-68
2022/09/20 09:01:23;;;;;;;4.75;1.20;;;14.40;99.90;;;;;;5090798;28;20082;-68
2022/09/20 09:04:15;;;;;;;10.77;1.42;;;14.30;99.90;;;;;;5077071;28;20051;-71
2022/09/20 09:06:41;;;;;;;5.22;1.10;;;14.30;99.90;;;;;;5077106;28;20033;-70
2022/09/20 09:09:16;;;;;;;3.33;1.05;;;14.30;99.90;;;;;;5096369;28;20020;-70
2022/09/20 09:11:42;;;;;;;11.52;1.35;;;14.40;99.90;;;;;;5095645;28;20032;-72
2022/09/20 09:17:08;;;;;;;3.70;1.20;;;14.70;99.90;;;;;;5064194;28;20061;-70
2022/09/20 09:19:47;;;;;;;6.30;1.50;;;14.80;99.90;;;;;;5082052;28;20032;-70
2022/09/20 09:22:23;;;;;;;5.88;1.00;;;15.00;99.90;;;;;;5088372;28;20044;-70
2022/09/20 09:25:13;;;;;;;6.35;1.10;;;15.00;99.90;;;;;;5098902;28;20070;-71
2022/09/20 09:28:11;;;;;;;4.72;1.08;;;15.10;99.90;;;;;;5063400;28;20056;-70
2022/09/20 09:30:46;;;;;;;3.38;0.93;;;15.30;99.90;;;;;;5072703;28;20097;-70
2022/09/20 09:33:24;;;;;;;7.60;1.70;;;15.40;99.90;;;;;;5072799;28;20043;-66
2022/09/20 09:36:17;;;;;;;3.92;1.52;;;15.50;99.90;;;;;;5068800;28;20116;-67
2022/09/20 09:38:44;;;;;;;2.80;0.95;;;15.60;99.90;;;;;;5062921;28;20053;-68
2022/09/20 09:41:32;;;;;;;6.43;1.67;;;15.60;99.90;;;;;;5073780;28;20033;-69
2022/09/20 09:43:58;;;;;;;2.33;1.00;;;15.60;99.90;;;;;;5099700;28;20166;-67
2022/09/20 09:46:25;;;;;;;6.07;1.33;;;15.60;99.90;;;;;;5101010;28;20065;-70
2022/09/20 09:49:04;;;;;;;10.02;1.73;;;15.50;99.90;;;;;;5091091;28;20041;-69
2022/09/20 09:51:31;;;;;;;7.28;2.33;;;15.40;99.90;;;;;;5073968;28;20101;-68
2022/09/20 09:53:56;;;;;;;6.65;1.20;;;15.30;99.90;;;;;;5064330;28;20110;-70
2022/09/20 09:56:33;;;;;;;4.97;1.48;;;15.30;99.90;;;;;;5089049;28;20044;-70
2022/09/20 09:59:41;;;;;;;5.80;1.75;;;15.40;99.90;;;;;;5099533;28;20041;-69
2022/09/20 10:02:22;;;;;;;3.25;1.15;;;15.40;99.90;;;;;;5080024;28;20105;-71
2022/09/20 10:05:16;;;;;;;6.22;1.50;;;15.40;99.90;;;;;;5090416;28;20037;-68
2022/09/20 10:08:20;;;;;;;4.82;1.10;;;15.50;98.90;;;;;;5077880;28;20048;-70
2022/09/20 10:11:11;;;;;;;3.55;0.90;;;15.50;99.60;;;;;;5074114;28;20101;-69
2022/09/20 10:13:54;;;;;;;7.53;1.42;;;15.50;99.00;;;;;;5085119;28;20067;-69
2022/09/20 10:16:38;;;;;;;5.63;1.63;;;15.60;99.40;;;;;;5067216;28;20383;-69
2022/09/20 10:19:34;;;;;;;10.90;1.50;;;15.70;99.90;;;;;;5067072;28;20094;-69
2022/09/20 10:22:08;;;;;;;7.53;1.38;;;15.80;99.30;;;;;;5066660;28;20071;-69
2022/09/20 10:24:49;;;;;;;3.78;1.13;;;15.80;99.10;;;;;;5066394;28;20048;-70
2022/09/20 10:27:32;;;;;;;8.38;1.38;;;16.00;99.10;;;;;;5071020;28;20121;-70
2022/09/20 10:30:15;;;;;;;9.25;1.60;;;16.00;99.00;;;;;;5056017;28;20064;-72
2022/09/20 10:33:01;;;;;;;6.22;1.20;;;16.10;99.90;;;;;;5056125;28;20068;-70
2022/09/20 10:35:54;;;;;;;6.05;1.58;;;16.20;99.20;;;;;;5067650;28;20056;-70
2022/09/20 10:38:35;;;;;;;11.55;1.45;;;16.40;99.60;;;;;;5072905;28;20044;-70
2022/09/20 10:44:15;;;;;;;9.85;1.90;;;16.60;98.90;;;;;;5065777;28;20124;-69
2022/09/20 10:47:19;;;;;;;11.38;1.75;;;16.80;98.80;;;;;;5061999;28;20036;-69
2022/09/20 10:50:06;;;;;;;5.57;1.40;;;17.00;96.90;;;;;;5068467;28;20032;-69
2022/09/20 10:52:43;;;;;;;6.82;1.95;;;17.00;96.20;;;;;;5070837;28;20093;-69
2022/09/20 10:55:30;;;;;;;7.60;1.45;;;16.80;96.40;;;;;;5061890;28;20134;-68
2022/09/20 10:58:10;;;;;;;10.23;1.77;;;16.70;97.00;;;;;;5074460;28;20024;-68
2022/09/20 11:00:57;;;;;;;11.38;1.85;;;16.70;97.00;;;;;;5067487;28;20041;-67
2022/09/20 11:03:54;;;;;;;9.45;1.83;;;16.60;97.50;;;;;;5078484;28;20114;-69
2022/09/20 11:06:42;;;;;;;11.60;2.03;;;16.60;96.20;;;;;;5084636;28;20576;-68
2022/09/20 11:09:14;;;;;;;8.85;1.88;;;16.50;97.10;;;;;;5084704;28;20063;-70
2022/09/20 11:11:44;;;;;;;6.63;1.45;;;16.40;97.40;;;;;;5085726;28;20040;-69
2022/09/20 11:14:12;;;;;;;5.82;1.48;;;16.60;96.60;;;;;;5079069;28;20035;-71
2022/09/20 11:17:05;;;;;;;4.85;1.23;;;16.80;96.10;;;;;;5078025;28;20044;-71
2022/09/20 11:19:59;;;;;;;7.97;1.90;;;16.80;95.20;;;;;;5087975;28;20043;-71
2022/09/20 11:22:31;;;;;;;10.13;1.88;;;17.00;95.40;;;;;;5080738;28;20048;-69
2022/09/20 11:25:38;;;;;;;6.03;1.75;;;17.20;94.60;;;;;;5076560;28;20063;-68
2022/09/20 11:28:30;;;;;;;6.30;1.80;;;17.40;93.50;;;;;;5079808;28;20041;-70
2022/09/20 11:31:08;;;;;;;6.80;1.40;;;17.70;93.40;;;;;;5064009;28;20033;-71
2022/09/20 11:33:45;;;;;;;8.13;1.60;;;17.80;91.50;;;;;;5073032;28;20028;-70
2022/09/20 11:36:59;;;;;;;16.40;2.47;;;17.90;92.60;;;;;;5061383;28;20079;-71
2022/09/20 11:39:45;;;;;;;3.50;1.20;;;18.40;91.50;;;;;;5076239;28;20143;-68
2022/09/20 11:42:16;;;;;;;6.68;1.63;;;18.90;90.70;;;;;;5078405;28;20574;-68
2022/09/20 11:44:42;;;;;;;7.78;1.67;;;19.50;89.20;;;;;;5087619;28;20037;-69
2022/09/20 11:47:25;;;;;;;4.32;1.48;;;19.70;89.70;;;;;;5070442;28;20044;-69
2022/09/20 11:50:09;;;;;;;9.25;1.77;;;19.20;90.30;;;;;;5065801;28;20049;-67
2022/09/20 11:53:05;;;;;;;10.25;1.65;;;18.60;91.00;;;;;;5045919;28;20033;-69
2022/09/20 11:55:47;;;;;;;4.53;1.73;;;18.00;91.70;;;;;;5048698;28;20046;-68
2022/09/20 11:58:19;;;;;;;9.20;1.85;;;18.30;93.10;;;;;;5057524;28;20040;-68
2022/09/20 12:00:49;;;;;;;4.70;1.60;;;18.40;90.40;;;;;;5072136;28;20052;-70
2022/09/20 12:03:51;;;;;;;5.40;1.65;;;18.00;90.80;;;;;;5071995;28;20037;-69
2022/09/20 12:06:28;;;;;;;6.15;1.42;;;17.50;91.20;;;;;;4997124;28;20110;-71
2022/09/20 12:08:56;;;;;;;7.55;1.40;;;17.20;92.10;;;;;;5043965;28;20055;-70
2022/09/20 12:11:32;;;;;;;4.25;1.30;;;16.80;93.00;;;;;;5050017;28;20487;-70
2022/09/20 12:14:06;;;;;;;12.15;1.75;;;16.60;93.10;;;;;;5075946;28;20032;-69
2022/09/20 12:16:46;;;;;;;6.22;1.58;;;16.40;93.60;;;;;;5068160;28;20487;-69
2022/09/20 12:19:33;;;;;;;6.18;1.60;;;16.30;94.70;;;;;;5052988;28;20041;-70
2022/09/20 12:21:59;;;;;;;9.75;1.50;;;16.20;95.20;;;;;;5062063;28;20040;-70
2022/09/20 12:24:33;;;;;;;9.18;1.95;;;16.20;95.80;;;;;;5069659;28;20072;-71
2022/09/20 12:27:19;;;;;;;11.05;1.70;;;16.20;94.80;;;;;;5071112;28;20044;-70
2022/09/20 12:30:16;;;;;;;4.07;1.50;;;16.20;95.40;;;;;;5068428;28;20082;-70
2022/09/20 12:32:49;;;;;;;4.97;1.30;;;16.40;95.70;;;;;;5073806;28;20079;-70
2022/09/20 12:35:43;;;;;;;7.50;1.77;;;16.70;95.10;;;;;;5062252;28;20032;-70
2022/09/20 12:38:20;;;;;;;7.72;1.83;;;17.40;93.40;;;;;;5060325;28;20060;-71
2022/09/20 12:41:19;;;;;;;4.18;1.30;;;18.30;92.60;;;;;;5060580;28;20395;-70
2022/09/20 12:44:18;;;;;;;6.50;0.90;;;19.00;90.20;;;;;;5014501;28;20059;-70
2022/09/20 12:46:52;;;;;;;7.88;1.90;;;19.00;88.30;;;;;;5056164;28;20112;-68
2022/09/20 12:55:25;;;;;;;4.78;1.50;;;19.40;85.80;;;;;;5058499;28;20040;-70
2022/09/20 12:58:24;;;;;;;7.03;1.35;;;19.50;84.60;;;;;;5055912;28;20052;-68
2022/09/20 13:01:10;;;;;;;8.10;1.80;;;19.20;87.10;;;;;;5054068;28;20128;-70
2022/09/20 13:03:42;;;;;;;4.40;1.50;;;18.80;88.40;;;;;;5060895;28;20495;-69
2022/09/20 13:06:09;;;;;;;5.43;1.10;;;18.40;90.20;;;;;;5063282;28;20049;-70
2022/09/20 13:09:00;;;;;;;6.40;1.30;;;18.10;90.50;;;;;;5067199;28;20044;-68
2022/09/20 13:11:44;;;;;;;8.45;1.50;;;17.90;90.80;;;;;;5067968;28;20069;-69
2022/09/20 13:14:25;;;;;;;4.68;1.30;;;17.70;91.40;;;;;;5054446;28;20045;-68
2022/09/20 13:17:05;;;;;;;8.75;2.03;;;17.60;90.80;;;;;;5074527;28;20040;-67
2022/09/20 13:19:37;;;;;;;9.73;1.80;;;17.30;91.40;;;;;;5056108;28;20091;-67
2022/09/20 13:22:06;;;;;;;10.82;1.63;;;17.10;92.30;;;;;;5066503;28;20096;-72
2022/09/20 13:24:37;;;;;;;7.32;1.45;;;17.00;93.10;;;;;;5071466;28;20509;-69
2022/09/20 13:27:23;;;;;;;9.10;1.70;;;17.00;93.30;;;;;;5055752;28;20065;-69
2022/09/20 13:29:49;;;;;;;10.55;1.83;;;16.90;93.80;;;;;;5047859;28;20057;-70
2022/09/20 13:32:26;;;;;;;10.65;2.08;;;16.70;94.20;;;;;;5060206;28;20021;-70
2022/09/20 13:35:13;;;;;;;6.45;1.50;;;16.60;94.10;;;;;;5068552;28;20485;-67
2022/09/20 13:37:46;;;;;;;10.63;2.65;;;16.50;94.50;;;;;;5056298;28;20041;-70
2022/09/20 13:40:37;;;;;;;8.02;1.40;;;16.50;94.70;;;;;;5065650;28;20060;-70
2022/09/20 13:43:05;;;;;;;9.27;1.60;;;16.40;94.70;;;;;;5032035;28;20048;-68
2022/09/20 13:45:32;;;;;;;5.35;1.20;;;16.50;94.20;;;;;;5065002;28;20029;-69
2022/09/20 13:48:00;;;;;;;9.00;1.08;;;16.50;94.70;;;;;;5060736;28;20052;-69
2022/09/20 13:50:25;;;;;;;12.50;1.45;;;16.50;93.90;;;;;;5066390;28;20507;-69
2022/09/20 13:53:12;;;;;;;5.90;1.45;;;16.30;93.60;;;;;;5045612;28;20096;-71
2022/09/20 13:55:39;;;;;;;6.10;1.63;;;16.30;93.70;;;;;;5067655;28;20052;-70
2022/09/20 13:58:15;;;;;;;7.18;1.48;;;16.40;93.90;;;;;;5064802;28;20045;-70
2022/09/20 14:00:48;;;;;;;5.55;1.42;;;16.40;93.40;;;;;;5069223;28;20041;-70
2022/09/20 14:03:16;;;;;;;4.20;1.20;;;16.40;92.40;;;;;;5064508;28;20356;-70
2022/09/20 14:05:46;;;;;;;;;;;16.30;92.40;;;;;;5052712;28;20045;-70
2022/09/20 14:08:16;;;;;;;;;;;16.30;93.40;;;;;;5059234;28;19920;-71
2022/09/20 14:10:42;;;;;;;4.47;0.82;;;16.30;92.90;;;;;;5056039;28;19927;-70
2022/09/20 14:13:14;;;;;;;5.00;0.70;;;16.20;93.40;;;;;;5047187;28;20045;-70
2022/09/20 14:15:45;;;;;;;4.88;1.00;;;16.30;93.90;;;;;;5058895;28;20041;-69
2022/09/20 14:18:15;;;;;;;4.45;1.17;;;16.10;93.80;;;;;;5060900;28;20100;-68
2022/09/20 14:20:45;;;;;;;4.00;1.00;;;16.10;94.10;;;;;;5065537;28;20067;-70
2022/09/20 14:23:22;;;;;;;5.50;1.30;;;16.10;93.80;;;;;;5071086;28;20589;-71
2022/09/20 14:26:24;;;;;;;5.75;1.48;;;16.00;94.10;;;;;;5047202;28;20033;-70
2022/09/20 14:28:50;;;;;;;10.57;2.03;;;16.00;93.80;;;;;;5071400;28;20033;-71
2022/09/20 14:31:30;;;;;;;11.18;1.25;;;16.00;94.00;;;;;;5087563;28;20055;-69